PUX weather

El Mirador Airport
Puerto Varas, Los Lagos Region, Chile

Public forecast

Using degrees Celsius for public forecast. Weather courtesy of forecast.io.

METAR (pilot weather report)

Closest report is El Tepual Airport, 8.5 nm (15.8 km) SW. Retrieved 2019/04/19 14:00 UTC (40 minutes ago):

SCTE 191400Z 22005KT 9999 OVC017 09/09 Q1019 NOSIG

TAF (pilot weather forecast)

Closest forecast is El Tepual Airport, 8.5 nm (15.8 km) SW. Retrieved 2019/04/19 12:00 UTC (3 hours ago):

TAF SCTE 191010Z 1912/2012 20004KT 9999 OVC018 TX14/1919Z TN04/2011Z PROB40 TEMPO 1912/1914 VRB02KT 3000 -DZBR SCT010 OVC015 BECMG 1913/1915 18005KT BECMG 1916/1918 17010KT BKN020 BECMG 1918/1920 18015KT SCT030 BECMG 1922/1924 18010KT CAVOK BECMG 2001/2003 18004KT BECMG 2004/2006 3000 BR BKN010 TEMPO 2006/2012 0600 FG OVC004